sensor_id;sensor_type;location;lat;lon;timestamp;P1;durP1;ratioP1;P2;durP2;ratioP2
23358;SDS011;11851;50.796;4.372;2022-10-31T00:02:02;22.98;;;10.35;;
23358;SDS011;11851;50.796;4.372;2022-10-31T00:04:28;23.80;;;10.73;;
23358;SDS011;11851;50.796;4.372;2022-10-31T00:06:54;25.25;;;11.32;;
23358;SDS011;11851;50.796;4.372;2022-10-31T00:09:19;17.80;;;9.82;;
23358;SDS011;11851;50.796;4.372;2022-10-31T00:11:45;23.27;;;10.63;;
23358;SDS011;11851;50.796;4.372;2022-10-31T00:14:10;27.92;;;10.90;;
23358;SDS011;11851;50.796;4.372;2022-10-31T00:16:36;31.50;;;10.85;;
23358;SDS011;11851;50.796;4.372;2022-10-31T00:19:03;23.60;;;10.93;;
23358;SDS011;11851;50.796;4.372;2022-10-31T00:21:31;23.67;;;10.50;;
23358;SDS011;11851;50.796;4.372;2022-10-31T00:23:57;22.58;;;10.95;;
23358;SDS011;11851;50.796;4.372;2022-10-31T00:26:24;26.60;;;10.93;;
23358;SDS011;11851;50.796;4.372;2022-10-31T00:28:51;27.25;;;10.80;;
23358;SDS011;11851;50.796;4.372;2022-10-31T00:31:17;19.00;;;9.98;;
23358;SDS011;11851;50.796;4.372;2022-10-31T00:33:43;23.42;;;10.07;;
23358;SDS011;11851;50.796;4.372;2022-10-31T00:36:12;27.05;;;10.73;;
23358;SDS011;11851;50.796;4.372;2022-10-31T00:38:40;20.88;;;10.50;;
23358;SDS011;11851;50.796;4.372;2022-10-31T00:41:06;25.27;;;10.18;;
23358;SDS011;11851;50.796;4.372;2022-10-31T00:43:32;22.27;;;10.60;;
23358;SDS011;11851;50.796;4.372;2022-10-31T00:45:57;22.70;;;10.35;;
23358;SDS011;11851;50.796;4.372;2022-10-31T00:48:23;22.70;;;10.35;;
23358;SDS011;11851;50.796;4.372;2022-10-31T00:50:49;21.58;;;11.13;;
23358;SDS011;11851;50.796;4.372;2022-10-31T00:53:15;21.88;;;10.23;;
23358;SDS011;11851;50.796;4.372;2022-10-31T00:55:40;20.73;;;10.07;;
23358;SDS011;11851;50.796;4.372;2022-10-31T00:58:06;24.42;;;10.55;;
23358;SDS011;11851;50.796;4.372;2022-10-31T01:00:34;18.17;;;9.52;;
23358;SDS011;11851;50.796;4.372;2022-10-31T01:03:00;25.77;;;9.77;;
23358;SDS011;11851;50.796;4.372;2022-10-31T01:05:25;22.65;;;10.43;;
23358;SDS011;11851;50.796;4.372;2022-10-31T01:07:51;25.42;;;9.88;;
23358;SDS011;11851;50.796;4.372;2022-10-31T01:10:17;24.00;;;9.80;;
23358;SDS011;11851;50.796;4.372;2022-10-31T01:12:44;22.08;;;10.32;;
23358;SDS011;11851;50.796;4.372;2022-10-31T01:15:12;26.38;;;9.95;;
23358;SDS011;11851;50.796;4.372;2022-10-31T01:17:39;19.00;;;9.52;;
23358;SDS011;11851;50.796;4.372;2022-10-31T01:20:05;22.60;;;9.50;;
23358;SDS011;11851;50.796;4.372;2022-10-31T01:22:32;27.20;;;10.43;;
23358;SDS011;11851;50.796;4.372;2022-10-31T01:24:58;19.55;;;9.43;;
23358;SDS011;11851;50.796;4.372;2022-10-31T01:27:24;20.42;;;9.05;;
23358;SDS011;11851;50.796;4.372;2022-10-31T01:29:50;15.25;;;9.18;;
23358;SDS011;11851;50.796;4.372;2022-10-31T01:32:15;20.25;;;9.27;;
23358;SDS011;11851;50.796;4.372;2022-10-31T01:34:41;21.25;;;9.52;;
23358;SDS011;11851;50.796;4.372;2022-10-31T01:37:07;22.52;;;9.13;;
23358;SDS011;11851;50.796;4.372;2022-10-31T01:39:32;26.00;;;9.60;;
23358;SDS011;11851;50.796;4.372;2022-10-31T01:41:58;21.17;;;9.77;;
23358;SDS011;11851;50.796;4.372;2022-10-31T01:47:00;29.55;;;9.10;;
23358;SDS011;11851;50.796;4.372;2022-10-31T01:49:34;23.77;;;9.80;;
23358;SDS011;11851;50.796;4.372;2022-10-31T01:54:41;25.23;;;9.00;;
23358;SDS011;11851;50.796;4.372;2022-10-31T01:57:15;19.35;;;8.25;;
23358;SDS011;11851;50.796;4.372;2022-10-31T01:59:44;20.27;;;8.90;;
23358;SDS011;11851;50.796;4.372;2022-10-31T02:02:14;18.25;;;9.52;;
23358;SDS011;11851;50.796;4.372;2022-10-31T02:04:41;19.35;;;9.05;;
23358;SDS011;11851;50.796;4.372;2022-10-31T02:07:12;14.30;;;8.25;;
23358;SDS011;11851;50.796;4.372;2022-10-31T02:09:41;16.75;;;8.93;;
23358;SDS011;11851;50.796;4.372;2022-10-31T02:12:09;27.50;;;8.93;;
23358;SDS011;11851;50.796;4.372;2022-10-31T02:14:35;19.50;;;8.98;;
23358;SDS011;11851;50.796;4.372;2022-10-31T02:17:03;18.63;;;8.93;;
23358;SDS011;11851;50.796;4.372;2022-10-31T02:19:38;18.73;;;8.80;;
23358;SDS011;11851;50.796;4.372;2022-10-31T02:23:23;21.45;;;9.02;;
23358;SDS011;11851;50.796;4.372;2022-10-31T02:36:11;20.02;;;8.40;;
23358;SDS011;11851;50.796;4.372;2022-10-31T02:44:09;16.52;;;7.85;;
23358;SDS011;11851;50.796;4.372;2022-10-31T02:49:28;18.17;;;8.98;;
23358;SDS011;11851;50.796;4.372;2022-10-31T02:52:17;21.33;;;8.55;;
23358;SDS011;11851;50.796;4.372;2022-10-31T02:54:44;20.50;;;8.50;;
23358;SDS011;11851;50.796;4.372;2022-10-31T02:57:11;18.80;;;8.30;;
23358;SDS011;11851;50.796;4.372;2022-10-31T02:59:40;21.38;;;9.35;;
23358;SDS011;11851;50.796;4.372;2022-10-31T03:02:25;13.65;;;7.68;;
23358;SDS011;11851;50.796;4.372;2022-10-31T03:07:50;18.13;;;7.82;;
23358;SDS011;11851;50.796;4.372;2022-10-31T03:10:31;17.10;;;8.35;;
23358;SDS011;11851;50.796;4.372;2022-10-31T03:16:13;17.70;;;8.20;;
23358;SDS011;11851;50.796;4.372;2022-10-31T03:18:40;20.42;;;8.27;;
23358;SDS011;11851;50.796;4.372;2022-10-31T03:21:20;15.38;;;7.60;;
23358;SDS011;11851;50.796;4.372;2022-10-31T03:23:47;17.70;;;8.05;;
23358;SDS011;11851;50.796;4.372;2022-10-31T03:26:15;13.90;;;8.25;;
23358;SDS011;11851;50.796;4.372;2022-10-31T03:28:53;14.88;;;7.82;;
23358;SDS011;11851;50.796;4.372;2022-10-31T03:31:26;16.38;;;8.07;;
23358;SDS011;11851;50.796;4.372;2022-10-31T03:33:58;19.13;;;7.72;;
23358;SDS011;11851;50.796;4.372;2022-10-31T03:36:25;16.83;;;7.50;;
23358;SDS011;11851;50.796;4.372;2022-10-31T03:38:54;14.88;;;7.43;;
23358;SDS011;11851;50.796;4.372;2022-10-31T03:41:23;18.80;;;8.32;;
23358;SDS011;11851;50.796;4.372;2022-10-31T03:44:00;21.05;;;8.13;;
23358;SDS011;11851;50.796;4.372;2022-10-31T03:46:29;15.68;;;7.28;;
23358;SDS011;11851;50.796;4.372;2022-10-31T03:48:55;17.83;;;7.78;;
23358;SDS011;11851;50.796;4.372;2022-10-31T03:54:04;16.60;;;7.75;;
23358;SDS011;11851;50.796;4.372;2022-10-31T03:56:52;17.55;;;7.68;;
23358;SDS011;11851;50.796;4.372;2022-10-31T03:59:25;16.55;;;8.48;;
23358;SDS011;11851;50.796;4.372;2022-10-31T04:01:57;13.13;;;7.88;;
23358;SDS011;11851;50.796;4.372;2022-10-31T04:04:26;18.38;;;8.38;;
23358;SDS011;11851;50.796;4.372;2022-10-31T04:06:54;17.67;;;8.20;;
23358;SDS011;11851;50.796;4.372;2022-10-31T04:09:21;15.55;;;8.02;;
23358;SDS011;11851;50.796;4.372;2022-10-31T04:11:51;17.77;;;8.32;;
23358;SDS011;11851;50.796;4.372;2022-10-31T04:14:19;26.20;;;7.95;;
23358;SDS011;11851;50.796;4.372;2022-10-31T04:16:48;17.75;;;8.20;;
23358;SDS011;11851;50.796;4.372;2022-10-31T04:19:14;15.80;;;7.70;;
23358;SDS011;11851;50.796;4.372;2022-10-31T04:21:40;15.85;;;7.97;;
23358;SDS011;11851;50.796;4.372;2022-10-31T04:24:08;18.08;;;7.65;;
23358;SDS011;11851;50.796;4.372;2022-10-31T04:26:34;17.60;;;8.52;;
23358;SDS011;11851;50.796;4.372;2022-10-31T04:28:59;17.13;;;8.15;;
23358;SDS011;11851;50.796;4.372;2022-10-31T04:31:25;20.02;;;8.32;;
23358;SDS011;11851;50.796;4.372;2022-10-31T04:33:51;20.67;;;8.52;;
23358;SDS011;11851;50.796;4.372;2022-10-31T04:36:17;17.20;;;7.85;;
23358;SDS011;11851;50.796;4.372;2022-10-31T04:38:42;13.38;;;7.93;;
23358;SDS011;11851;50.796;4.372;2022-10-31T04:41:08;14.35;;;7.20;;
23358;SDS011;11851;50.796;4.372;2022-10-31T04:43:34;13.63;;;7.07;;
23358;SDS011;11851;50.796;4.372;2022-10-31T04:45:59;22.38;;;7.85;;
23358;SDS011;11851;50.796;4.372;2022-10-31T04:48:25;19.98;;;7.07;;
23358;SDS011;11851;50.796;4.372;2022-10-31T04:50:51;17.67;;;7.50;;
23358;SDS011;11851;50.796;4.372;2022-10-31T04:53:17;17.75;;;8.07;;
23358;SDS011;11851;50.796;4.372;2022-10-31T04:55:42;15.93;;;6.97;;
23358;SDS011;11851;50.796;4.372;2022-10-31T04:58:08;16.13;;;7.82;;
23358;SDS011;11851;50.796;4.372;2022-10-31T05:00:33;14.63;;;6.95;;
23358;SDS011;11851;50.796;4.372;2022-10-31T05:02:59;18.67;;;7.28;;
23358;SDS011;11851;50.796;4.372;2022-10-31T05:05:26;14.77;;;7.05;;
23358;SDS011;11851;50.796;4.372;2022-10-31T05:07:53;14.20;;;6.93;;
23358;SDS011;11851;50.796;4.372;2022-10-31T05:10:21;16.08;;;7.28;;
23358;SDS011;11851;50.796;4.372;2022-10-31T05:12:51;14.35;;;7.60;;
23358;SDS011;11851;50.796;4.372;2022-10-31T05:15:25;16.02;;;7.05;;
23358;SDS011;11851;50.796;4.372;2022-10-31T05:17:52;17.05;;;7.35;;
23358;SDS011;11851;50.796;4.372;2022-10-31T05:20:21;16.45;;;7.43;;
23358;SDS011;11851;50.796;4.372;2022-10-31T05:22:49;22.30;;;7.55;;
23358;SDS011;11851;50.796;4.372;2022-10-31T05:25:17;17.90;;;7.60;;
23358;SDS011;11851;50.796;4.372;2022-10-31T05:27:44;16.63;;;7.78;;
23358;SDS011;11851;50.796;4.372;2022-10-31T05:30:11;15.88;;;7.00;;
23358;SDS011;11851;50.796;4.372;2022-10-31T05:32:39;15.25;;;7.32;;
23358;SDS011;11851;50.796;4.372;2022-10-31T05:35:06;17.67;;;6.70;;
23358;SDS011;11851;50.796;4.372;2022-10-31T05:37:33;18.17;;;7.95;;
23358;SDS011;11851;50.796;4.372;2022-10-31T05:40:00;17.80;;;7.95;;
23358;SDS011;11851;50.796;4.372;2022-10-31T05:42:26;21.88;;;9.23;;
23358;SDS011;11851;50.796;4.372;2022-10-31T05:44:52;22.15;;;10.48;;
23358;SDS011;11851;50.796;4.372;2022-10-31T05:47:17;14.13;;;7.28;;
23358;SDS011;11851;50.796;4.372;2022-10-31T05:49:43;15.57;;;6.70;;
23358;SDS011;11851;50.796;4.372;2022-10-31T05:52:08;19.85;;;7.63;;
23358;SDS011;11851;50.796;4.372;2022-10-31T05:54:34;15.50;;;7.45;;
23358;SDS011;11851;50.796;4.372;2022-10-31T05:57:00;18.80;;;7.65;;
23358;SDS011;11851;50.796;4.372;2022-10-31T05:59:25;18.35;;;7.70;;
23358;SDS011;11851;50.796;4.372;2022-10-31T06:01:51;15.35;;;7.95;;
23358;SDS011;11851;50.796;4.372;2022-10-31T06:04:16;22.05;;;8.25;;
23358;SDS011;11851;50.796;4.372;2022-10-31T06:06:42;19.67;;;8.02;;
23358;SDS011;11851;50.796;4.372;2022-10-31T06:09:07;22.25;;;8.85;;
23358;SDS011;11851;50.796;4.372;2022-10-31T06:11:33;19.77;;;7.97;;
23358;SDS011;11851;50.796;4.372;2022-10-31T06:13:59;25.13;;;9.10;;
23358;SDS011;11851;50.796;4.372;2022-10-31T06:16:24;16.67;;;7.70;;
23358;SDS011;11851;50.796;4.372;2022-10-31T06:18:50;19.23;;;8.95;;
23358;SDS011;11851;50.796;4.372;2022-10-31T06:21:16;20.55;;;9.43;;
23358;SDS011;11851;50.796;4.372;2022-10-31T06:23:41;20.30;;;9.70;;
23358;SDS011;11851;50.796;4.372;2022-10-31T06:26:07;23.15;;;9.82;;
23358;SDS011;11851;50.796;4.372;2022-10-31T06:28:32;25.35;;;10.48;;
23358;SDS011;11851;50.796;4.372;2022-10-31T06:30:58;31.00;;;14.13;;
23358;SDS011;11851;50.796;4.372;2022-10-31T06:33:24;28.90;;;11.45;;
23358;SDS011;11851;50.796;4.372;2022-10-31T06:35:49;23.08;;;10.68;;
23358;SDS011;11851;50.796;4.372;2022-10-31T06:38:15;22.80;;;11.55;;
23358;SDS011;11851;50.796;4.372;2022-10-31T06:40:40;25.05;;;11.20;;
23358;SDS011;11851;50.796;4.372;2022-10-31T06:43:06;24.50;;;10.65;;
23358;SDS011;11851;50.796;4.372;2022-10-31T06:45:32;20.10;;;10.35;;
23358;SDS011;11851;50.796;4.372;2022-10-31T06:47:57;22.30;;;10.20;;
23358;SDS011;11851;50.796;4.372;2022-10-31T06:50:23;21.92;;;10.98;;
23358;SDS011;11851;50.796;4.372;2022-10-31T06:52:52;23.60;;;11.27;;
23358;SDS011;11851;50.796;4.372;2022-10-31T06:55:19;24.13;;;11.40;;
23358;SDS011;11851;50.796;4.372;2022-10-31T07:00:16;23.60;;;11.07;;
23358;SDS011;11851;50.796;4.372;2022-10-31T07:02:42;21.63;;;10.82;;
23358;SDS011;11851;50.796;4.372;2022-10-31T07:05:08;25.42;;;11.05;;
23358;SDS011;11851;50.796;4.372;2022-10-31T07:07:33;29.58;;;11.45;;
23358;SDS011;11851;50.796;4.372;2022-10-31T07:09:59;22.45;;;11.00;;
23358;SDS011;11851;50.796;4.372;2022-10-31T07:12:24;24.77;;;11.55;;
23358;SDS011;11851;50.796;4.372;2022-10-31T07:14:50;29.50;;;12.10;;
23358;SDS011;11851;50.796;4.372;2022-10-31T07:17:16;32.72;;;13.25;;
23358;SDS011;11851;50.796;4.372;2022-10-31T07:19:41;23.35;;;11.88;;
23358;SDS011;11851;50.796;4.372;2022-10-31T07:22:07;23.35;;;11.27;;
23358;SDS011;11851;50.796;4.372;2022-10-31T07:24:32;23.23;;;11.70;;
23358;SDS011;11851;50.796;4.372;2022-10-31T07:26:58;27.52;;;12.40;;
23358;SDS011;11851;50.796;4.372;2022-10-31T07:29:23;22.58;;;11.00;;
23358;SDS011;11851;50.796;4.372;2022-10-31T07:31:49;26.35;;;12.02;;
23358;SDS011;11851;50.796;4.372;2022-10-31T07:34:15;27.67;;;11.52;;
23358;SDS011;11851;50.796;4.372;2022-10-31T07:36:40;22.25;;;11.77;;
23358;SDS011;11851;50.796;4.372;2022-10-31T07:39:06;29.00;;;12.40;;
23358;SDS011;11851;50.796;4.372;2022-10-31T07:41:31;29.42;;;12.95;;
23358;SDS011;11851;50.796;4.372;2022-10-31T07:43:57;22.38;;;13.38;;
23358;SDS011;11851;50.796;4.372;2022-10-31T07:46:23;24.70;;;13.23;;
23358;SDS011;11851;50.796;4.372;2022-10-31T07:48:48;24.70;;;12.15;;
23358;SDS011;11851;50.796;4.372;2022-10-31T07:51:14;21.35;;;10.85;;
23358;SDS011;11851;50.796;4.372;2022-10-31T07:53:39;25.63;;;12.73;;
23358;SDS011;11851;50.796;4.372;2022-10-31T07:56:05;24.90;;;11.52;;
23358;SDS011;11851;50.796;4.372;2022-10-31T07:58:31;24.85;;;10.57;;
23358;SDS011;11851;50.796;4.372;2022-10-31T08:00:57;17.58;;;9.77;;
23358;SDS011;11851;50.796;4.372;2022-10-31T08:03:22;18.98;;;9.82;;
23358;SDS011;11851;50.796;4.372;2022-10-31T08:05:48;21.80;;;10.13;;
23358;SDS011;11851;50.796;4.372;2022-10-31T08:08:14;37.33;;;17.58;;
23358;SDS011;11851;50.796;4.372;2022-10-31T08:10:39;21.05;;;10.15;;
23358;SDS011;11851;50.796;4.372;2022-10-31T08:13:07;22.60;;;9.63;;
23358;SDS011;11851;50.796;4.372;2022-10-31T08:15:34;21.13;;;8.98;;
23358;SDS011;11851;50.796;4.372;2022-10-31T08:18:03;22.50;;;8.90;;
23358;SDS011;11851;50.796;4.372;2022-10-31T08:20:29;25.08;;;9.35;;
23358;SDS011;11851;50.796;4.372;2022-10-31T08:22:55;19.67;;;8.45;;
23358;SDS011;11851;50.796;4.372;2022-10-31T08:25:22;25.13;;;9.82;;
23358;SDS011;11851;50.796;4.372;2022-10-31T08:27:52;18.50;;;8.48;;
23358;SDS011;11851;50.796;4.372;2022-10-31T08:30:19;17.67;;;8.82;;
23358;SDS011;11851;50.796;4.372;2022-10-31T08:32:46;20.00;;;8.13;;
23358;SDS011;11851;50.796;4.372;2022-10-31T08:35:12;17.20;;;8.40;;
23358;SDS011;11851;50.796;4.372;2022-10-31T08:37:38;18.40;;;8.05;;
23358;SDS011;11851;50.796;4.372;2022-10-31T08:40:04;16.83;;;7.95;;
23358;SDS011;11851;50.796;4.372;2022-10-31T08:42:31;15.98;;;7.85;;
23358;SDS011;11851;50.796;4.372;2022-10-31T08:44:57;15.80;;;7.63;;
23358;SDS011;11851;50.796;4.372;2022-10-31T08:47:22;19.65;;;8.80;;
23358;SDS011;11851;50.796;4.372;2022-10-31T08:49:48;18.33;;;7.55;;
23358;SDS011;11851;50.796;4.372;2022-10-31T08:52:14;15.93;;;7.95;;
23358;SDS011;11851;50.796;4.372;2022-10-31T08:54:40;20.33;;;8.45;;
23358;SDS011;11851;50.796;4.372;2022-10-31T08:57:05;25.08;;;9.27;;
23358;SDS011;11851;50.796;4.372;2022-10-31T08:59:31;14.00;;;8.40;;
23358;SDS011;11851;50.796;4.372;2022-10-31T09:01:56;22.52;;;9.23;;
23358;SDS011;11851;50.796;4.372;2022-10-31T09:04:22;15.75;;;8.57;;
23358;SDS011;11851;50.796;4.372;2022-10-31T09:06:48;15.50;;;8.00;;
23358;SDS011;11851;50.796;4.372;2022-10-31T09:09:13;21.98;;;8.43;;
23358;SDS011;11851;50.796;4.372;2022-10-31T09:11:40;17.08;;;7.88;;
23358;SDS011;11851;50.796;4.372;2022-10-31T09:14:06;20.35;;;7.72;;
23358;SDS011;11851;50.796;4.372;2022-10-31T09:16:31;19.10;;;8.85;;
23358;SDS011;11851;50.796;4.372;2022-10-31T09:18:57;17.70;;;7.93;;
23358;SDS011;11851;50.796;4.372;2022-10-31T09:21:22;15.40;;;7.88;;
23358;SDS011;11851;50.796;4.372;2022-10-31T09:23:48;14.90;;;8.35;;
23358;SDS011;11851;50.796;4.372;2022-10-31T09:26:14;17.25;;;8.30;;
23358;SDS011;11851;50.796;4.372;2022-10-31T09:28:39;16.27;;;8.20;;
23358;SDS011;11851;50.796;4.372;2022-10-31T09:31:05;18.80;;;8.23;;
23358;SDS011;11851;50.796;4.372;2022-10-31T09:33:30;18.38;;;8.02;;
23358;SDS011;11851;50.796;4.372;2022-10-31T09:35:57;21.80;;;8.10;;
23358;SDS011;11851;50.796;4.372;2022-10-31T09:38:23;16.58;;;7.63;;
23358;SDS011;11851;50.796;4.372;2022-10-31T09:40:54;12.18;;;6.90;;
23358;SDS011;11851;50.796;4.372;2022-10-31T09:44:14;16.35;;;7.93;;
23358;SDS011;11851;50.796;4.372;2022-10-31T09:49:50;18.25;;;7.38;;
23358;SDS011;11851;50.796;4.372;2022-10-31T09:52:36;15.95;;;6.60;;
23358;SDS011;11851;50.796;4.372;2022-10-31T09:55:21;17.90;;;8.00;;
23358;SDS011;11851;50.796;4.372;2022-10-31T09:58:13;16.98;;;7.75;;
23358;SDS011;11851;50.796;4.372;2022-10-31T10:00:43;17.52;;;7.38;;
23358;SDS011;11851;50.796;4.372;2022-10-31T10:03:13;19.90;;;7.97;;
23358;SDS011;11851;50.796;4.372;2022-10-31T10:06:03;18.88;;;8.13;;
23358;SDS011;11851;50.796;4.372;2022-10-31T10:08:48;18.58;;;8.23;;
23358;SDS011;11851;50.796;4.372;2022-10-31T10:11:24;19.70;;;8.23;;
23358;SDS011;11851;50.796;4.372;2022-10-31T10:25:37;21.63;;;8.60;;
23358;SDS011;11851;50.796;4.372;2022-10-31T10:33:18;17.23;;;8.30;;
23358;SDS011;11851;50.796;4.372;2022-10-31T10:41:00;24.58;;;9.80;;
23358;SDS011;11851;50.796;4.372;2022-10-31T10:43:33;20.13;;;9.35;;
23358;SDS011;11851;50.796;4.372;2022-10-31T10:56:50;20.77;;;9.30;;
23358;SDS011;11851;50.796;4.372;2022-10-31T10:59:19;21.23;;;9.73;;
23358;SDS011;11851;50.796;4.372;2022-10-31T11:01:48;20.83;;;10.35;;
23358;SDS011;11851;50.796;4.372;2022-10-31T11:04:32;24.13;;;9.52;;
23358;SDS011;11851;50.796;4.372;2022-10-31T11:07:00;23.75;;;9.02;;
23358;SDS011;11851;50.796;4.372;2022-10-31T11:09:36;19.52;;;9.07;;
23358;SDS011;11851;50.796;4.372;2022-10-31T11:12:07;18.80;;;8.50;;
23358;SDS011;11851;50.796;4.372;2022-10-31T11:15:07;21.02;;;8.98;;
23358;SDS011;11851;50.796;4.372;2022-10-31T11:17:46;21.17;;;8.98;;
23358;SDS011;11851;50.796;4.372;2022-10-31T11:22:43;21.92;;;8.85;;
23358;SDS011;11851;50.796;4.372;2022-10-31T11:30:47;20.38;;;8.15;;
23358;SDS011;11851;50.796;4.372;2022-10-31T11:33:20;17.60;;;8.73;;
23358;SDS011;11851;50.796;4.372;2022-10-31T11:36:27;17.77;;;8.13;;
23358;SDS011;11851;50.796;4.372;2022-10-31T11:38:56;20.30;;;8.20;;
23358;SDS011;11851;50.796;4.372;2022-10-31T11:44:09;22.52;;;9.80;;
23358;SDS011;11851;50.796;4.372;2022-10-31T11:46:58;20.88;;;8.25;;
23358;SDS011;11851;50.796;4.372;2022-10-31T11:49:30;20.20;;;8.23;;
23358;SDS011;11851;50.796;4.372;2022-10-31T11:52:06;15.80;;;7.30;;
23358;SDS011;11851;50.796;4.372;2022-10-31T11:57:56;21.83;;;8.60;;
23358;SDS011;11851;50.796;4.372;2022-10-31T12:00:29;24.42;;;9.10;;
23358;SDS011;11851;50.796;4.372;2022-10-31T12:03:11;15.70;;;7.47;;
23358;SDS011;11851;50.796;4.372;2022-10-31T12:05:41;19.27;;;7.93;;
23358;SDS011;11851;50.796;4.372;2022-10-31T12:08:09;21.52;;;7.72;;
23358;SDS011;11851;50.796;4.372;2022-10-31T12:14:34;17.98;;;7.43;;
23358;SDS011;11851;50.796;4.372;2022-10-31T12:19:09;22.23;;;7.88;;
23358;SDS011;11851;50.796;4.372;2022-10-31T12:27:29;19.83;;;7.47;;
23358;SDS011;11851;50.796;4.372;2022-10-31T12:30:17;16.75;;;7.15;;
23358;SDS011;11851;50.796;4.372;2022-10-31T12:38:40;20.13;;;7.20;;
23358;SDS011;11851;50.796;4.372;2022-10-31T12:43:54;20.03;;;7.53;;
23358;SDS011;11851;50.796;4.372;2022-10-31T12:59:53;22.00;;;6.00;;
23358;SDS011;11851;50.796;4.372;2022-10-31T13:02:35;14.23;;;5.68;;
23358;SDS011;11851;50.796;4.372;2022-10-31T13:07:43;12.88;;;5.50;;
23358;SDS011;11851;50.796;4.372;2022-10-31T13:13:34;18.30;;;5.40;;
23358;SDS011;11851;50.796;4.372;2022-10-31T13:18:47;18.73;;;7.60;;
23358;SDS011;11851;50.796;4.372;2022-10-31T13:21:20;12.75;;;6.03;;
23358;SDS011;11851;50.796;4.372;2022-10-31T13:24:01;20.85;;;5.78;;
23358;SDS011;11851;50.796;4.372;2022-10-31T13:31:41;15.23;;;5.55;;
23358;SDS011;11851;50.796;4.372;2022-10-31T13:34:34;18.02;;;5.43;;
23358;SDS011;11851;50.796;4.372;2022-10-31T13:40:16;14.32;;;5.68;;
23358;SDS011;11851;50.796;4.372;2022-10-31T13:45:31;18.17;;;5.32;;
23358;SDS011;11851;50.796;4.372;2022-10-31T13:50:29;17.13;;;5.47;;
23358;SDS011;11851;50.796;4.372;2022-10-31T13:53:12;11.73;;;4.68;;
23358;SDS011;11851;50.796;4.372;2022-10-31T13:55:44;16.40;;;5.38;;
23358;SDS011;11851;50.796;4.372;2022-10-31T13:58:22;16.20;;;5.30;;
23358;SDS011;11851;50.796;4.372;2022-10-31T14:01:05;12.90;;;5.10;;
23358;SDS011;11851;50.796;4.372;2022-10-31T14:03:40;13.68;;;4.32;;
23358;SDS011;11851;50.796;4.372;2022-10-31T14:06:09;17.52;;;5.40;;
23358;SDS011;11851;50.796;4.372;2022-10-31T14:08:37;11.38;;;4.40;;
23358;SDS011;11851;50.796;4.372;2022-10-31T14:11:06;17.83;;;5.15;;
23358;SDS011;11851;50.796;4.372;2022-10-31T14:13:36;13.30;;;4.63;;
23358;SDS011;11851;50.796;4.372;2022-10-31T14:16:23;15.40;;;4.82;;
23358;SDS011;11851;50.796;4.372;2022-10-31T14:19:04;15.60;;;4.88;;
23358;SDS011;11851;50.796;4.372;2022-10-31T14:21:43;23.38;;;5.53;;
23358;SDS011;11851;50.796;4.372;2022-10-31T14:24:52;16.38;;;4.80;;
23358;SDS011;11851;50.796;4.372;2022-10-31T14:27:05;17.83;;;4.57;;
23358;SDS011;11851;50.796;4.372;2022-10-31T14:29:51;15.20;;;4.45;;
23358;SDS011;11851;50.796;4.372;2022-10-31T14:32:22;16.15;;;4.40;;
23358;SDS011;11851;50.796;4.372;2022-10-31T14:37:18;16.50;;;4.00;;
23358;SDS011;11851;50.796;4.372;2022-10-31T14:50:55;15.20;;;4.10;;
23358;SDS011;11851;50.796;4.372;2022-10-31T14:53:24;19.00;;;4.97;;
23358;SDS011;11851;50.796;4.372;2022-10-31T14:55:55;18.65;;;5.00;;
23358;SDS011;11851;50.796;4.372;2022-10-31T14:58:43;14.40;;;4.30;;
23358;SDS011;11851;50.796;4.372;2022-10-31T15:01:18;14.50;;;4.35;;
23358;SDS011;11851;50.796;4.372;2022-10-31T15:03:57;15.18;;;4.47;;
23358;SDS011;11851;50.796;4.372;2022-10-31T15:06:28;15.55;;;5.45;;
23358;SDS011;11851;50.796;4.372;2022-10-31T15:09:01;17.20;;;4.50;;
23358;SDS011;11851;50.796;4.372;2022-10-31T15:11:27;13.85;;;4.38;;
23358;SDS011;11851;50.796;4.372;2022-10-31T15:13:53;18.20;;;5.18;;
23358;SDS011;11851;50.796;4.372;2022-10-31T15:18:52;15.88;;;4.75;;
23358;SDS011;11851;50.796;4.372;2022-10-31T15:21:27;21.10;;;5.72;;
23358;SDS011;11851;50.796;4.372;2022-10-31T15:23:55;11.73;;;5.13;;
23358;SDS011;11851;50.796;4.372;2022-10-31T15:26:23;18.70;;;5.10;;
23358;SDS011;11851;50.796;4.372;2022-10-31T15:29:00;13.93;;;5.03;;
23358;SDS011;11851;50.796;4.372;2022-10-31T15:31:28;12.27;;;5.05;;
23358;SDS011;11851;50.796;4.372;2022-10-31T15:33:54;19.63;;;5.35;;
23358;SDS011;11851;50.796;4.372;2022-10-31T15:36:24;24.58;;;6.30;;
23358;SDS011;11851;50.796;4.372;2022-10-31T15:38:50;15.95;;;5.95;;
23358;SDS011;11851;50.796;4.372;2022-10-31T15:41:24;19.17;;;5.97;;
23358;SDS011;11851;50.796;4.372;2022-10-31T15:44:12;26.15;;;6.88;;
23358;SDS011;11851;50.796;4.372;2022-10-31T15:52:14;20.63;;;7.43;;
23358;SDS011;11851;50.796;4.372;2022-10-31T15:54:45;23.92;;;7.93;;
23358;SDS011;11851;50.796;4.372;2022-10-31T15:57:13;19.45;;;7.47;;
23358;SDS011;11851;50.796;4.372;2022-10-31T15:59:40;28.02;;;7.45;;
23358;SDS011;11851;50.796;4.372;2022-10-31T16:02:10;22.08;;;7.40;;
23358;SDS011;11851;50.796;4.372;2022-10-31T16:04:37;24.02;;;8.02;;
23358;SDS011;11851;50.796;4.372;2022-10-31T16:07:33;19.02;;;7.78;;
23358;SDS011;11851;50.796;4.372;2022-10-31T16:09:59;32.75;;;8.85;;
23358;SDS011;11851;50.796;4.372;2022-10-31T16:12:32;21.10;;;8.60;;
23358;SDS011;11851;50.796;4.372;2022-10-31T16:15:01;17.70;;;8.05;;
23358;SDS011;11851;50.796;4.372;2022-10-31T16:17:28;24.92;;;8.45;;
23358;SDS011;11851;50.796;4.372;2022-10-31T16:19:59;24.83;;;8.23;;
23358;SDS011;11851;50.796;4.372;2022-10-31T16:22:31;26.30;;;9.30;;
23358;SDS011;11851;50.796;4.372;2022-10-31T16:27:31;22.52;;;8.27;;
23358;SDS011;11851;50.796;4.372;2022-10-31T16:30:00;24.17;;;8.68;;
23358;SDS011;11851;50.796;4.372;2022-10-31T16:32:51;22.27;;;9.32;;
23358;SDS011;11851;50.796;4.372;2022-10-31T16:37:49;23.60;;;9.03;;
23358;SDS011;11851;50.796;4.372;2022-10-31T16:40:15;27.95;;;8.85;;
23358;SDS011;11851;50.796;4.372;2022-10-31T16:42:41;20.15;;;7.57;;
23358;SDS011;11851;50.796;4.372;2022-10-31T16:45:07;32.75;;;8.52;;
23358;SDS011;11851;50.796;4.372;2022-10-31T16:47:40;19.42;;;7.25;;
23358;SDS011;11851;50.796;4.372;2022-10-31T16:50:11;19.33;;;6.80;;
23358;SDS011;11851;50.796;4.372;2022-10-31T16:52:39;25.05;;;8.00;;
23358;SDS011;11851;50.796;4.372;2022-10-31T16:55:05;22.00;;;7.07;;
23358;SDS011;11851;50.796;4.372;2022-10-31T16:57:31;14.52;;;6.38;;
23358;SDS011;11851;50.796;4.372;2022-10-31T16:59:56;22.65;;;7.05;;
23358;SDS011;11851;50.796;4.372;2022-10-31T17:02:22;21.52;;;6.72;;
23358;SDS011;11851;50.796;4.372;2022-10-31T17:04:48;13.60;;;5.63;;
23358;SDS011;11851;50.796;4.372;2022-10-31T17:07:14;17.00;;;5.68;;
23358;SDS011;11851;50.796;4.372;2022-10-31T17:09:40;17.13;;;5.68;;
23358;SDS011;11851;50.796;4.372;2022-10-31T17:12:06;20.27;;;5.35;;
23358;SDS011;11851;50.796;4.372;2022-10-31T17:14:36;15.77;;;5.85;;
23358;SDS011;11851;50.796;4.372;2022-10-31T17:17:02;17.80;;;6.32;;
23358;SDS011;11851;50.796;4.372;2022-10-31T17:19:27;13.10;;;5.63;;
23358;SDS011;11851;50.796;4.372;2022-10-31T17:21:53;14.50;;;6.20;;
23358;SDS011;11851;50.796;4.372;2022-10-31T17:24:19;12.23;;;5.75;;
23358;SDS011;11851;50.796;4.372;2022-10-31T17:26:44;18.35;;;5.45;;
23358;SDS011;11851;50.796;4.372;2022-10-31T17:29:11;19.35;;;6.60;;
23358;SDS011;11851;50.796;4.372;2022-10-31T17:31:36;15.95;;;5.53;;
23358;SDS011;11851;50.796;4.372;2022-10-31T17:34:03;15.13;;;5.20;;